Aviation Digital Data Service (ADDS)

Output produced by METARs form (2047 UTC 30 August 2016)
found at http://aviationweather.gov/adds/metars/
 
KBPT 301953Z 08010KT 10SM FEW049 34/22 A2991 RMK AO2 SLP127 T03440222